sensor_id;sensor_type;location;lat;lon;timestamp;P1;durP1;ratioP1;P2;durP2;ratioP2
28746;SDS011;15903;49.008;8.394;2023-03-05T00:01:20;67.30;;;25.67;;
28746;SDS011;15903;49.008;8.394;2023-03-05T00:03:48;57.92;;;23.10;;
28746;SDS011;15903;49.008;8.394;2023-03-05T00:06:16;64.15;;;24.42;;
28746;SDS011;15903;49.008;8.394;2023-03-05T00:08:42;69.10;;;24.80;;
28746;SDS011;15903;49.008;8.394;2023-03-05T00:11:09;61.22;;;23.02;;
28746;SDS011;15903;49.008;8.394;2023-03-05T00:13:35;62.15;;;23.98;;
28746;SDS011;15903;49.008;8.394;2023-03-05T00:16:06;55.90;;;22.05;;
28746;SDS011;15903;49.008;8.394;2023-03-05T00:18:33;73.90;;;24.90;;
28746;SDS011;15903;49.008;8.394;2023-03-05T00:20:59;62.88;;;24.10;;
28746;SDS011;15903;49.008;8.394;2023-03-05T00:23:24;67.68;;;22.73;;
28746;SDS011;15903;49.008;8.394;2023-03-05T00:25:50;60.40;;;24.02;;
28746;SDS011;15903;49.008;8.394;2023-03-05T00:28:16;64.72;;;24.27;;
28746;SDS011;15903;49.008;8.394;2023-03-05T00:30:42;67.82;;;23.75;;
28746;SDS011;15903;49.008;8.394;2023-03-05T00:33:07;56.17;;;23.10;;
28746;SDS011;15903;49.008;8.394;2023-03-05T00:35:42;67.35;;;23.50;;
28746;SDS011;15903;49.008;8.394;2023-03-05T00:38:09;70.80;;;23.52;;
28746;SDS011;15903;49.008;8.394;2023-03-05T00:40:39;62.95;;;24.10;;
28746;SDS011;15903;49.008;8.394;2023-03-05T00:43:05;67.05;;;24.23;;
28746;SDS011;15903;49.008;8.394;2023-03-05T00:45:31;63.70;;;24.40;;
28746;SDS011;15903;49.008;8.394;2023-03-05T00:47:57;72.32;;;23.88;;
28746;SDS011;15903;49.008;8.394;2023-03-05T00:50:24;70.03;;;24.55;;
28746;SDS011;15903;49.008;8.394;2023-03-05T00:52:51;59.63;;;22.70;;
28746;SDS011;15903;49.008;8.394;2023-03-05T00:55:16;62.38;;;24.00;;
28746;SDS011;15903;49.008;8.394;2023-03-05T00:57:42;71.32;;;24.20;;
28746;SDS011;15903;49.008;8.394;2023-03-05T01:00:08;69.55;;;24.17;;
28746;SDS011;15903;49.008;8.394;2023-03-05T01:02:35;69.25;;;24.27;;
28746;SDS011;15903;49.008;8.394;2023-03-05T01:05:00;65.13;;;23.70;;
28746;SDS011;15903;49.008;8.394;2023-03-05T01:07:26;64.47;;;23.55;;
28746;SDS011;15903;49.008;8.394;2023-03-05T01:09:52;71.40;;;24.40;;
28746;SDS011;15903;49.008;8.394;2023-03-05T01:12:17;70.30;;;24.58;;
28746;SDS011;15903;49.008;8.394;2023-03-05T01:14:43;60.80;;;22.90;;
28746;SDS011;15903;49.008;8.394;2023-03-05T01:17:08;63.13;;;23.30;;
28746;SDS011;15903;49.008;8.394;2023-03-05T01:19:34;59.75;;;22.13;;
28746;SDS011;15903;49.008;8.394;2023-03-05T01:21:59;66.45;;;22.92;;
28746;SDS011;15903;49.008;8.394;2023-03-05T01:24:25;69.40;;;23.85;;
28746;SDS011;15903;49.008;8.394;2023-03-05T01:26:51;65.43;;;23.00;;
28746;SDS011;15903;49.008;8.394;2023-03-05T01:29:16;61.20;;;24.08;;
28746;SDS011;15903;49.008;8.394;2023-03-05T01:31:42;60.35;;;24.08;;
28746;SDS011;15903;49.008;8.394;2023-03-05T01:34:08;77.15;;;23.77;;
28746;SDS011;15903;49.008;8.394;2023-03-05T01:36:33;64.05;;;23.25;;
28746;SDS011;15903;49.008;8.394;2023-03-05T01:38:59;66.35;;;25.17;;
28746;SDS011;15903;49.008;8.394;2023-03-05T01:41:25;58.22;;;23.23;;
28746;SDS011;15903;49.008;8.394;2023-03-05T01:43:51;66.55;;;23.90;;
28746;SDS011;15903;49.008;8.394;2023-03-05T01:46:29;68.93;;;23.70;;
28746;SDS011;15903;49.008;8.394;2023-03-05T01:49:01;53.03;;;22.15;;
28746;SDS011;15903;49.008;8.394;2023-03-05T01:51:31;63.95;;;23.48;;
28746;SDS011;15903;49.008;8.394;2023-03-05T01:54:02;63.63;;;23.17;;
28746;SDS011;15903;49.008;8.394;2023-03-05T01:56:30;66.97;;;24.00;;
28746;SDS011;15903;49.008;8.394;2023-03-05T01:58:56;63.75;;;23.65;;
28746;SDS011;15903;49.008;8.394;2023-03-05T02:01:28;60.58;;;21.60;;
28746;SDS011;15903;49.008;8.394;2023-03-05T02:03:59;65.50;;;22.77;;
28746;SDS011;15903;49.008;8.394;2023-03-05T02:06:25;56.50;;;21.85;;
28746;SDS011;15903;49.008;8.394;2023-03-05T02:08:51;63.78;;;23.75;;
28746;SDS011;15903;49.008;8.394;2023-03-05T02:11:17;64.43;;;23.30;;
28746;SDS011;15903;49.008;8.394;2023-03-05T02:13:44;64.13;;;23.55;;
28746;SDS011;15903;49.008;8.394;2023-03-05T02:16:09;65.65;;;23.58;;
28746;SDS011;15903;49.008;8.394;2023-03-05T02:18:35;65.18;;;23.85;;
28746;SDS011;15903;49.008;8.394;2023-03-05T02:21:02;71.90;;;24.55;;
28746;SDS011;15903;49.008;8.394;2023-03-05T02:23:33;73.57;;;25.50;;
28746;SDS011;15903;49.008;8.394;2023-03-05T02:26:03;66.90;;;24.50;;
28746;SDS011;15903;49.008;8.394;2023-03-05T02:28:33;71.80;;;25.13;;
28746;SDS011;15903;49.008;8.394;2023-03-05T02:31:09;70.38;;;24.40;;
28746;SDS011;15903;49.008;8.394;2023-03-05T02:33:38;73.88;;;24.88;;
28746;SDS011;15903;49.008;8.394;2023-03-05T02:36:04;64.97;;;23.98;;
28746;SDS011;15903;49.008;8.394;2023-03-05T02:38:30;76.63;;;24.55;;
28746;SDS011;15903;49.008;8.394;2023-03-05T02:40:56;63.33;;;23.80;;
28746;SDS011;15903;49.008;8.394;2023-03-05T02:43:21;65.20;;;24.38;;
28746;SDS011;15903;49.008;8.394;2023-03-05T02:45:47;69.00;;;24.88;;
28746;SDS011;15903;49.008;8.394;2023-03-05T02:48:13;66.95;;;23.58;;
28746;SDS011;15903;49.008;8.394;2023-03-05T02:50:38;72.53;;;25.45;;
28746;SDS011;15903;49.008;8.394;2023-03-05T02:53:05;71.25;;;24.95;;
28746;SDS011;15903;49.008;8.394;2023-03-05T02:55:31;75.57;;;24.40;;
28746;SDS011;15903;49.008;8.394;2023-03-05T02:57:57;82.60;;;26.25;;
28746;SDS011;15903;49.008;8.394;2023-03-05T03:00:23;72.00;;;25.58;;
28746;SDS011;15903;49.008;8.394;2023-03-05T03:02:48;70.20;;;25.92;;
28746;SDS011;15903;49.008;8.394;2023-03-05T03:05:14;75.05;;;26.35;;
28746;SDS011;15903;49.008;8.394;2023-03-05T03:07:40;79.57;;;25.33;;
28746;SDS011;15903;49.008;8.394;2023-03-05T03:10:06;67.38;;;25.95;;
28746;SDS011;15903;49.008;8.394;2023-03-05T03:12:41;71.47;;;26.10;;
28746;SDS011;15903;49.008;8.394;2023-03-05T03:15:08;78.70;;;25.02;;
28746;SDS011;15903;49.008;8.394;2023-03-05T03:17:35;75.63;;;25.67;;
28746;SDS011;15903;49.008;8.394;2023-03-05T03:20:03;63.17;;;24.05;;
28746;SDS011;15903;49.008;8.394;2023-03-05T03:22:30;64.22;;;24.63;;
28746;SDS011;15903;49.008;8.394;2023-03-05T03:24:55;68.07;;;24.30;;
28746;SDS011;15903;49.008;8.394;2023-03-05T03:27:21;83.03;;;26.88;;
28746;SDS011;15903;49.008;8.394;2023-03-05T03:29:47;66.97;;;23.98;;
28746;SDS011;15903;49.008;8.394;2023-03-05T03:32:12;70.60;;;24.65;;
28746;SDS011;15903;49.008;8.394;2023-03-05T03:34:38;74.13;;;26.67;;
28746;SDS011;15903;49.008;8.394;2023-03-05T03:37:04;71.47;;;26.65;;
28746;SDS011;15903;49.008;8.394;2023-03-05T03:39:30;72.93;;;24.08;;
28746;SDS011;15903;49.008;8.394;2023-03-05T03:41:56;65.43;;;25.08;;
28746;SDS011;15903;49.008;8.394;2023-03-05T03:44:21;65.88;;;24.52;;
28746;SDS011;15903;49.008;8.394;2023-03-05T03:46:48;73.05;;;25.05;;
28746;SDS011;15903;49.008;8.394;2023-03-05T03:49:15;65.13;;;24.33;;
28746;SDS011;15903;49.008;8.394;2023-03-05T03:51:43;62.03;;;25.27;;
28746;SDS011;15903;49.008;8.394;2023-03-05T03:54:09;71.40;;;25.88;;
28746;SDS011;15903;49.008;8.394;2023-03-05T03:56:34;72.20;;;25.60;;
28746;SDS011;15903;49.008;8.394;2023-03-05T03:59:00;73.68;;;24.92;;
28746;SDS011;15903;49.008;8.394;2023-03-05T04:01:26;63.78;;;24.83;;
28746;SDS011;15903;49.008;8.394;2023-03-05T04:03:52;78.03;;;24.67;;
28746;SDS011;15903;49.008;8.394;2023-03-05T04:06:17;70.45;;;24.95;;
28746;SDS011;15903;49.008;8.394;2023-03-05T04:08:44;66.97;;;24.73;;
28746;SDS011;15903;49.008;8.394;2023-03-05T04:11:09;60.45;;;24.63;;
28746;SDS011;15903;49.008;8.394;2023-03-05T04:13:35;60.92;;;24.15;;
28746;SDS011;15903;49.008;8.394;2023-03-05T04:16:00;74.78;;;25.23;;
28746;SDS011;15903;49.008;8.394;2023-03-05T04:18:26;75.57;;;26.45;;
28746;SDS011;15903;49.008;8.394;2023-03-05T04:20:52;68.20;;;24.95;;
28746;SDS011;15903;49.008;8.394;2023-03-05T04:23:18;64.22;;;24.10;;
28746;SDS011;15903;49.008;8.394;2023-03-05T04:25:44;68.45;;;26.50;;
28746;SDS011;15903;49.008;8.394;2023-03-05T04:28:09;63.38;;;24.33;;
28746;SDS011;15903;49.008;8.394;2023-03-05T04:30:35;63.13;;;23.75;;
28746;SDS011;15903;49.008;8.394;2023-03-05T04:33:01;66.82;;;25.02;;
28746;SDS011;15903;49.008;8.394;2023-03-05T04:35:26;71.97;;;25.27;;
28746;SDS011;15903;49.008;8.394;2023-03-05T04:37:52;68.40;;;24.98;;
28746;SDS011;15903;49.008;8.394;2023-03-05T04:40:17;76.38;;;28.38;;
28746;SDS011;15903;49.008;8.394;2023-03-05T04:42:43;76.57;;;26.02;;
28746;SDS011;15903;49.008;8.394;2023-03-05T04:45:09;72.68;;;26.83;;
28746;SDS011;15903;49.008;8.394;2023-03-05T04:47:35;76.88;;;27.55;;
28746;SDS011;15903;49.008;8.394;2023-03-05T04:50:01;72.68;;;25.83;;
28746;SDS011;15903;49.008;8.394;2023-03-05T04:52:28;68.72;;;25.83;;
28746;SDS011;15903;49.008;8.394;2023-03-05T04:54:54;76.85;;;26.60;;
28746;SDS011;15903;49.008;8.394;2023-03-05T04:57:19;71.55;;;26.58;;
28746;SDS011;15903;49.008;8.394;2023-03-05T04:59:45;69.82;;;25.17;;
28746;SDS011;15903;49.008;8.394;2023-03-05T05:02:10;63.35;;;26.30;;
28746;SDS011;15903;49.008;8.394;2023-03-05T05:04:36;69.25;;;26.30;;
28746;SDS011;15903;49.008;8.394;2023-03-05T05:07:02;71.70;;;27.25;;
28746;SDS011;15903;49.008;8.394;2023-03-05T05:09:28;74.47;;;27.63;;
28746;SDS011;15903;49.008;8.394;2023-03-05T05:11:54;68.10;;;26.40;;
28746;SDS011;15903;49.008;8.394;2023-03-05T05:14:20;67.60;;;26.05;;
28746;SDS011;15903;49.008;8.394;2023-03-05T05:16:46;67.07;;;24.98;;
28746;SDS011;15903;49.008;8.394;2023-03-05T05:19:11;71.05;;;26.05;;
28746;SDS011;15903;49.008;8.394;2023-03-05T05:21:37;62.97;;;24.63;;
28746;SDS011;15903;49.008;8.394;2023-03-05T05:24:03;68.10;;;25.20;;
28746;SDS011;15903;49.008;8.394;2023-03-05T05:26:29;69.72;;;26.38;;
28746;SDS011;15903;49.008;8.394;2023-03-05T05:28:54;62.47;;;24.30;;
28746;SDS011;15903;49.008;8.394;2023-03-05T05:31:20;68.10;;;24.65;;
28746;SDS011;15903;49.008;8.394;2023-03-05T05:33:45;68.03;;;25.27;;
28746;SDS011;15903;49.008;8.394;2023-03-05T05:36:12;60.17;;;23.20;;
28746;SDS011;15903;49.008;8.394;2023-03-05T05:38:39;68.72;;;25.42;;
28746;SDS011;15903;49.008;8.394;2023-03-05T05:41:09;65.38;;;25.00;;
28746;SDS011;15903;49.008;8.394;2023-03-05T05:43:39;68.63;;;25.65;;
28746;SDS011;15903;49.008;8.394;2023-03-05T05:46:06;63.60;;;25.88;;
28746;SDS011;15903;49.008;8.394;2023-03-05T05:48:35;75.55;;;26.88;;
28746;SDS011;15903;49.008;8.394;2023-03-05T05:51:08;68.70;;;25.90;;
28746;SDS011;15903;49.008;8.394;2023-03-05T05:53:39;65.53;;;25.38;;
28746;SDS011;15903;49.008;8.394;2023-03-05T05:56:06;72.82;;;26.88;;
28746;SDS011;15903;49.008;8.394;2023-03-05T05:58:33;66.03;;;25.15;;
28746;SDS011;15903;49.008;8.394;2023-03-05T06:00:59;65.97;;;25.25;;
28746;SDS011;15903;49.008;8.394;2023-03-05T06:03:24;74.45;;;25.80;;
28746;SDS011;15903;49.008;8.394;2023-03-05T06:05:50;69.95;;;26.15;;
28746;SDS011;15903;49.008;8.394;2023-03-05T06:08:16;70.97;;;26.95;;
28746;SDS011;15903;49.008;8.394;2023-03-05T06:10:42;70.40;;;26.63;;
28746;SDS011;15903;49.008;8.394;2023-03-05T06:13:07;73.22;;;26.45;;
28746;SDS011;15903;49.008;8.394;2023-03-05T06:15:33;71.80;;;26.80;;
28746;SDS011;15903;49.008;8.394;2023-03-05T06:17:59;68.15;;;26.50;;
28746;SDS011;15903;49.008;8.394;2023-03-05T06:20:25;72.05;;;27.13;;
28746;SDS011;15903;49.008;8.394;2023-03-05T06:22:51;77.03;;;28.40;;
28746;SDS011;15903;49.008;8.394;2023-03-05T06:25:17;68.97;;;26.33;;
28746;SDS011;15903;49.008;8.394;2023-03-05T06:27:43;69.78;;;27.20;;
28746;SDS011;15903;49.008;8.394;2023-03-05T06:30:09;74.90;;;28.55;;
28746;SDS011;15903;49.008;8.394;2023-03-05T06:32:35;82.65;;;29.10;;
28746;SDS011;15903;49.008;8.394;2023-03-05T06:35:01;72.78;;;27.73;;
28746;SDS011;15903;49.008;8.394;2023-03-05T06:37:27;72.18;;;27.25;;
28746;SDS011;15903;49.008;8.394;2023-03-05T06:39:52;82.63;;;28.27;;
28746;SDS011;15903;49.008;8.394;2023-03-05T06:42:18;71.65;;;27.33;;
28746;SDS011;15903;49.008;8.394;2023-03-05T06:44:44;71.95;;;27.42;;
28746;SDS011;15903;49.008;8.394;2023-03-05T06:47:10;71.82;;;26.35;;
28746;SDS011;15903;49.008;8.394;2023-03-05T06:49:36;69.18;;;26.45;;
28746;SDS011;15903;49.008;8.394;2023-03-05T06:52:02;72.85;;;27.55;;
28746;SDS011;15903;49.008;8.394;2023-03-05T06:54:28;81.38;;;28.00;;
28746;SDS011;15903;49.008;8.394;2023-03-05T06:56:53;78.68;;;27.63;;
28746;SDS011;15903;49.008;8.394;2023-03-05T06:59:19;78.30;;;28.88;;
28746;SDS011;15903;49.008;8.394;2023-03-05T07:01:46;75.70;;;27.15;;
28746;SDS011;15903;49.008;8.394;2023-03-05T07:04:12;75.93;;;27.63;;
28746;SDS011;15903;49.008;8.394;2023-03-05T07:06:39;70.20;;;26.80;;
28746;SDS011;15903;49.008;8.394;2023-03-05T07:09:17;75.93;;;29.08;;
28746;SDS011;15903;49.008;8.394;2023-03-05T07:11:44;69.93;;;26.73;;
28746;SDS011;15903;49.008;8.394;2023-03-05T07:14:10;75.00;;;28.30;;
28746;SDS011;15903;49.008;8.394;2023-03-05T07:16:36;75.90;;;27.55;;
28746;SDS011;15903;49.008;8.394;2023-03-05T07:19:03;71.03;;;27.15;;
28746;SDS011;15903;49.008;8.394;2023-03-05T07:21:31;78.50;;;27.27;;
28746;SDS011;15903;49.008;8.394;2023-03-05T07:23:58;82.72;;;28.75;;
28746;SDS011;15903;49.008;8.394;2023-03-05T07:26:25;65.00;;;26.30;;
28746;SDS011;15903;49.008;8.394;2023-03-05T07:28:52;72.40;;;28.38;;
28746;SDS011;15903;49.008;8.394;2023-03-05T07:31:19;71.57;;;26.45;;
28746;SDS011;15903;49.008;8.394;2023-03-05T07:33:47;75.38;;;28.17;;
28746;SDS011;15903;49.008;8.394;2023-03-05T07:36:14;77.53;;;28.83;;
28746;SDS011;15903;49.008;8.394;2023-03-05T07:38:41;70.65;;;27.35;;
28746;SDS011;15903;49.008;8.394;2023-03-05T07:41:08;74.70;;;27.88;;
28746;SDS011;15903;49.008;8.394;2023-03-05T07:43:35;79.50;;;26.50;;
28746;SDS011;15903;49.008;8.394;2023-03-05T07:46:05;64.78;;;25.00;;
28746;SDS011;15903;49.008;8.394;2023-03-05T07:48:32;74.30;;;27.20;;
28746;SDS011;15903;49.008;8.394;2023-03-05T07:53:27;70.95;;;27.02;;
28746;SDS011;15903;49.008;8.394;2023-03-05T07:55:53;76.55;;;27.30;;
28746;SDS011;15903;49.008;8.394;2023-03-05T07:58:18;67.03;;;26.05;;
28746;SDS011;15903;49.008;8.394;2023-03-05T08:00:44;71.93;;;27.13;;
28746;SDS011;15903;49.008;8.394;2023-03-05T08:03:10;72.47;;;26.75;;
28746;SDS011;15903;49.008;8.394;2023-03-05T08:05:37;69.43;;;26.23;;
28746;SDS011;15903;49.008;8.394;2023-03-05T08:08:04;74.35;;;26.38;;
28746;SDS011;15903;49.008;8.394;2023-03-05T08:10:30;72.78;;;26.95;;
28746;SDS011;15903;49.008;8.394;2023-03-05T08:12:56;73.68;;;27.90;;
28746;SDS011;15903;49.008;8.394;2023-03-05T08:15:21;70.78;;;26.25;;
28746;SDS011;15903;49.008;8.394;2023-03-05T08:17:47;65.25;;;24.95;;
28746;SDS011;15903;49.008;8.394;2023-03-05T08:20:13;63.47;;;25.08;;
28746;SDS011;15903;49.008;8.394;2023-03-05T08:22:38;67.78;;;27.17;;
28746;SDS011;15903;49.008;8.394;2023-03-05T08:25:04;68.72;;;27.58;;
28746;SDS011;15903;49.008;8.394;2023-03-05T08:27:31;64.93;;;27.30;;
28746;SDS011;15903;49.008;8.394;2023-03-05T08:29:56;72.63;;;25.50;;
28746;SDS011;15903;49.008;8.394;2023-03-05T08:32:22;63.22;;;24.40;;
28746;SDS011;15903;49.008;8.394;2023-03-05T08:34:48;64.55;;;23.92;;
28746;SDS011;15903;49.008;8.394;2023-03-05T08:37:14;58.13;;;23.58;;
28746;SDS011;15903;49.008;8.394;2023-03-05T08:39:39;61.03;;;23.10;;
28746;SDS011;15903;49.008;8.394;2023-03-05T08:42:05;52.45;;;23.30;;
28746;SDS011;15903;49.008;8.394;2023-03-05T08:44:31;54.05;;;23.77;;
28746;SDS011;15903;49.008;8.394;2023-03-05T08:46:56;57.28;;;23.27;;
28746;SDS011;15903;49.008;8.394;2023-03-05T08:49:22;53.25;;;22.10;;
28746;SDS011;15903;49.008;8.394;2023-03-05T08:51:48;55.72;;;23.10;;
28746;SDS011;15903;49.008;8.394;2023-03-05T08:54:13;55.10;;;21.35;;
28746;SDS011;15903;49.008;8.394;2023-03-05T08:56:39;50.63;;;20.40;;
28746;SDS011;15903;49.008;8.394;2023-03-05T08:59:05;51.25;;;20.90;;
28746;SDS011;15903;49.008;8.394;2023-03-05T09:01:31;47.72;;;20.23;;
28746;SDS011;15903;49.008;8.394;2023-03-05T09:04:00;48.45;;;20.55;;
28746;SDS011;15903;49.008;8.394;2023-03-05T09:06:26;46.65;;;19.75;;
28746;SDS011;15903;49.008;8.394;2023-03-05T09:08:52;45.78;;;19.75;;
28746;SDS011;15903;49.008;8.394;2023-03-05T09:11:18;42.75;;;18.85;;
28746;SDS011;15903;49.008;8.394;2023-03-05T09:13:44;49.45;;;21.52;;
28746;SDS011;15903;49.008;8.394;2023-03-05T09:16:11;34.63;;;16.40;;
28746;SDS011;15903;49.008;8.394;2023-03-05T09:18:38;34.83;;;15.38;;
28746;SDS011;15903;49.008;8.394;2023-03-05T09:21:05;34.67;;;15.43;;
28746;SDS011;15903;49.008;8.394;2023-03-05T09:23:32;34.05;;;15.68;;
28746;SDS011;15903;49.008;8.394;2023-03-05T09:25:58;32.38;;;14.48;;
28746;SDS011;15903;49.008;8.394;2023-03-05T09:28:24;35.00;;;16.58;;
28746;SDS011;15903;49.008;8.394;2023-03-05T09:30:49;34.50;;;16.08;;
28746;SDS011;15903;49.008;8.394;2023-03-05T09:33:15;28.10;;;14.73;;
28746;SDS011;15903;49.008;8.394;2023-03-05T09:35:41;34.70;;;15.57;;
28746;SDS011;15903;49.008;8.394;2023-03-05T09:38:07;43.30;;;17.80;;
28746;SDS011;15903;49.008;8.394;2023-03-05T09:43:21;34.22;;;13.98;;
28746;SDS011;15903;49.008;8.394;2023-03-05T09:51:26;35.17;;;15.82;;
28746;SDS011;15903;49.008;8.394;2023-03-05T09:56:28;31.92;;;14.63;;
28746;SDS011;15903;49.008;8.394;2023-03-05T09:59:01;31.15;;;14.60;;
28746;SDS011;15903;49.008;8.394;2023-03-05T10:01:51;32.45;;;14.40;;
28746;SDS011;15903;49.008;8.394;2023-03-05T10:04:18;34.25;;;16.98;;
28746;SDS011;15903;49.008;8.394;2023-03-05T10:06:52;33.08;;;14.85;;
28746;SDS011;15903;49.008;8.394;2023-03-05T10:12:06;21.05;;;10.38;;
28746;SDS011;15903;49.008;8.394;2023-03-05T10:14:39;28.58;;;12.73;;
28746;SDS011;15903;49.008;8.394;2023-03-05T10:22:27;30.15;;;11.52;;
28746;SDS011;15903;49.008;8.394;2023-03-05T10:25:24;25.50;;;11.95;;
28746;SDS011;15903;49.008;8.394;2023-03-05T10:27:58;28.05;;;11.60;;
28746;SDS011;15903;49.008;8.394;2023-03-05T10:30:57;29.67;;;11.45;;
28746;SDS011;15903;49.008;8.394;2023-03-05T10:33:30;30.13;;;11.70;;
28746;SDS011;15903;49.008;8.394;2023-03-05T10:39:07;27.73;;;11.55;;
28746;SDS011;15903;49.008;8.394;2023-03-05T10:41:55;24.95;;;11.65;;
28746;SDS011;15903;49.008;8.394;2023-03-05T10:44:39;23.88;;;11.23;;
28746;SDS011;15903;49.008;8.394;2023-03-05T10:50:23;23.70;;;11.65;;
28746;SDS011;15903;49.008;8.394;2023-03-05T10:55:30;28.65;;;12.80;;
28746;SDS011;15903;49.008;8.394;2023-03-05T10:57:56;26.15;;;13.30;;
28746;SDS011;15903;49.008;8.394;2023-03-05T11:00:23;25.30;;;11.52;;
28746;SDS011;15903;49.008;8.394;2023-03-05T11:02:59;30.45;;;11.45;;
28746;SDS011;15903;49.008;8.394;2023-03-05T11:05:33;25.33;;;12.20;;
28746;SDS011;15903;49.008;8.394;2023-03-05T11:11:00;25.33;;;11.50;;
28746;SDS011;15903;49.008;8.394;2023-03-05T11:16:45;26.95;;;11.80;;
28746;SDS011;15903;49.008;8.394;2023-03-05T11:19:26;29.15;;;14.15;;
28746;SDS011;15903;49.008;8.394;2023-03-05T11:22:04;29.80;;;12.60;;
28746;SDS011;15903;49.008;8.394;2023-03-05T11:30:17;31.23;;;13.55;;
28746;SDS011;15903;49.008;8.394;2023-03-05T11:33:11;30.25;;;13.68;;
28746;SDS011;15903;49.008;8.394;2023-03-05T11:35:40;31.73;;;13.02;;
28746;SDS011;15903;49.008;8.394;2023-03-05T11:38:18;29.13;;;13.50;;
28746;SDS011;15903;49.008;8.394;2023-03-05T11:40:44;29.58;;;12.95;;
28746;SDS011;15903;49.008;8.394;2023-03-05T11:43:18;25.35;;;12.82;;
28746;SDS011;15903;49.008;8.394;2023-03-05T11:45:46;26.90;;;11.98;;
28746;SDS011;15903;49.008;8.394;2023-03-05T11:48:19;27.92;;;11.98;;
28746;SDS011;15903;49.008;8.394;2023-03-05T11:50:59;28.85;;;12.45;;
28746;SDS011;15903;49.008;8.394;2023-03-05T11:53:27;24.27;;;10.45;;
28746;SDS011;15903;49.008;8.394;2023-03-05T12:01:16;23.75;;;9.85;;
28746;SDS011;15903;49.008;8.394;2023-03-05T12:03:47;20.48;;;9.10;;
28746;SDS011;15903;49.008;8.394;2023-03-05T12:06:20;22.52;;;10.15;;
28746;SDS011;15903;49.008;8.394;2023-03-05T12:08:57;24.35;;;9.60;;
28746;SDS011;15903;49.008;8.394;2023-03-05T12:19:32;22.08;;;9.80;;
28746;SDS011;15903;49.008;8.394;2023-03-05T12:22:14;26.25;;;11.27;;
28746;SDS011;15903;49.008;8.394;2023-03-05T12:24:42;20.95;;;8.93;;
28746;SDS011;15903;49.008;8.394;2023-03-05T12:27:09;15.55;;;7.85;;
28746;SDS011;15903;49.008;8.394;2023-03-05T12:29:49;16.08;;;7.18;;
28746;SDS011;15903;49.008;8.394;2023-03-05T12:47:40;17.73;;;8.35;;
28746;SDS011;15903;49.008;8.394;2023-03-05T12:53:09;17.83;;;8.43;;
28746;SDS011;15903;49.008;8.394;2023-03-05T13:03:47;18.92;;;7.80;;
28746;SDS011;15903;49.008;8.394;2023-03-05T13:06:27;14.13;;;7.30;;
28746;SDS011;15903;49.008;8.394;2023-03-05T13:08:57;18.48;;;7.88;;
28746;SDS011;15903;49.008;8.394;2023-03-05T13:11:29;16.10;;;7.47;;
28746;SDS011;15903;49.008;8.394;2023-03-05T13:13:58;20.92;;;7.63;;
28746;SDS011;15903;49.008;8.394;2023-03-05T13:16:27;18.70;;;7.47;;
28746;SDS011;15903;49.008;8.394;2023-03-05T13:18:56;15.85;;;7.13;;
28746;SDS011;15903;49.008;8.394;2023-03-05T13:21:29;14.77;;;7.15;;
28746;SDS011;15903;49.008;8.394;2023-03-05T13:23:56;19.42;;;7.00;;
28746;SDS011;15903;49.008;8.394;2023-03-05T13:26:25;15.25;;;6.88;;
28746;SDS011;15903;49.008;8.394;2023-03-05T13:29:02;16.00;;;6.88;;
28746;SDS011;15903;49.008;8.394;2023-03-05T13:32:03;15.30;;;6.90;;
28746;SDS011;15903;49.008;8.394;2023-03-05T13:34:50;21.08;;;8.32;;
28746;SDS011;15903;49.008;8.394;2023-03-05T13:37:25;17.77;;;7.50;;
28746;SDS011;15903;49.008;8.394;2023-03-05T13:42:24;17.95;;;6.80;;
28746;SDS011;15903;49.008;8.394;2023-03-05T13:44:56;16.00;;;7.05;;
28746;SDS011;15903;49.008;8.394;2023-03-05T13:47:24;12.23;;;6.38;;
28746;SDS011;15903;49.008;8.394;2023-03-05T13:49:56;12.80;;;6.30;;
28746;SDS011;15903;49.008;8.394;2023-03-05T13:52:28;15.80;;;6.60;;
28746;SDS011;15903;49.008;8.394;2023-03-05T13:54:56;16.63;;;6.95;;
28746;SDS011;15903;49.008;8.394;2023-03-05T13:57:31;17.55;;;6.97;;
28746;SDS011;15903;49.008;8.394;2023-03-05T13:59:57;16.25;;;7.30;;
28746;SDS011;15903;49.008;8.394;2023-03-05T14:02:23;12.70;;;6.25;;
28746;SDS011;15903;49.008;8.394;2023-03-05T14:04:51;12.18;;;5.70;;
28746;SDS011;15903;49.008;8.394;2023-03-05T14:07:30;13.27;;;5.03;;
28746;SDS011;15903;49.008;8.394;2023-03-05T14:10:01;7.43;;;4.35;;
28746;SDS011;15903;49.008;8.394;2023-03-05T14:15:24;11.60;;;6.63;;
28746;SDS011;15903;49.008;8.394;2023-03-05T14:18:07;11.57;;;5.20;;
28746;SDS011;15903;49.008;8.394;2023-03-05T14:20:32;8.93;;;4.60;;
28746;SDS011;15903;49.008;8.394;2023-03-05T14:22:59;11.27;;;5.35;;
28746;SDS011;15903;49.008;8.394;2023-03-05T14:25:26;17.15;;;8.52;;
28746;SDS011;15903;49.008;8.394;2023-03-05T14:27:58;15.98;;;8.57;;
28746;SDS011;15903;49.008;8.394;2023-03-05T14:30:25;21.65;;;8.90;;
28746;SDS011;15903;49.008;8.394;2023-03-05T14:32:53;19.30;;;9.15;;
28746;SDS011;15903;49.008;8.394;2023-03-05T14:35:20;15.13;;;7.30;;
28746;SDS011;15903;49.008;8.394;2023-03-05T14:37:50;14.88;;;6.45;;
28746;SDS011;15903;49.008;8.394;2023-03-05T14:40:20;120.68;;;44.85;;
28746;SDS011;15903;49.008;8.394;2023-03-05T14:42:52;44.25;;;19.50;;
28746;SDS011;15903;49.008;8.394;2023-03-05T14:45:31;17.98;;;8.63;;
28746;SDS011;15903;49.008;8.394;2023-03-05T14:47:59;36.65;;;20.98;;
28746;SDS011;15903;49.008;8.394;2023-03-05T14:50:32;12.98;;;7.97;;
28746;SDS011;15903;49.008;8.394;2023-03-05T14:53:24;9.80;;;4.88;;
28746;SDS011;15903;49.008;8.394;2023-03-05T14:55:58;22.95;;;13.82;;
28746;SDS011;15903;49.008;8.394;2023-03-05T14:58:25;15.20;;;6.55;;
28746;SDS011;15903;49.008;8.394;2023-03-05T15:00:53;13.45;;;5.55;;
28746;SDS011;15903;49.008;8.394;2023-03-05T15:03:19;44.10;;;26.52;;
28746;SDS011;15903;49.008;8.394;2023-03-05T15:05:50;23.33;;;11.15;;
28746;SDS011;15903;49.008;8.394;2023-03-05T15:08:17;19.00;;;9.30;;
28746;SDS011;15903;49.008;8.394;2023-03-05T15:10:46;15.52;;;9.52;;
28746;SDS011;15903;49.008;8.394;2023-03-05T15:13:13;16.42;;;7.72;;
28746;SDS011;15903;49.008;8.394;2023-03-05T15:15:40;47.65;;;29.02;;
28746;SDS011;15903;49.008;8.394;2023-03-05T15:18:09;10.60;;;5.70;;
28746;SDS011;15903;49.008;8.394;2023-03-05T15:20:37;10.40;;;4.78;;
28746;SDS011;15903;49.008;8.394;2023-03-05T15:23:03;9.35;;;4.10;;
28746;SDS011;15903;49.008;8.394;2023-03-05T15:25:29;16.00;;;8.45;;
28746;SDS011;15903;49.008;8.394;2023-03-05T15:27:55;10.50;;;5.68;;
28746;SDS011;15903;49.008;8.394;2023-03-05T15:30:28;10.52;;;4.82;;
28746;SDS011;15903;49.008;8.394;2023-03-05T15:32:56;11.95;;;4.63;;
28746;SDS011;15903;49.008;8.394;2023-03-05T15:35:24;14.45;;;5.25;;
28746;SDS011;15903;49.008;8.394;2023-03-05T15:37:51;9.10;;;4.30;;
28746;SDS011;15903;49.008;8.394;2023-03-05T15:40:18;9.13;;;4.55;;
28746;SDS011;15903;49.008;8.394;2023-03-05T15:42:45;9.80;;;4.15;;
28746;SDS011;15903;49.008;8.394;2023-03-05T15:45:11;16.80;;;5.13;;
28746;SDS011;15903;49.008;8.394;2023-03-05T15:47:37;10.55;;;4.75;;
28746;SDS011;15903;49.008;8.394;2023-03-05T15:50:03;10.40;;;4.97;;
28746;SDS011;15903;49.008;8.394;2023-03-05T15:52:29;11.23;;;5.10;;
28746;SDS011;15903;49.008;8.394;2023-03-05T15:54:54;10.25;;;4.53;;
28746;SDS011;15903;49.008;8.394;2023-03-05T15:57:20;12.45;;;5.60;;